Time;durP1;ratioP1;P1;durP2;ratioP2;P2;SDS_P1;SDS_P2;PMS_P1;PMS_P2;Temp;Humidity;BMP_temperature;BMP_pressure;BME280_temperature;BME280_humidity;BME280_pressure;Samples;Min_cycle;Max_cycle;Signal;HPM_P1;HPM_P2
2022/03/30 04:19:16;;;;;;;25.65;14.98;;;;;;;8.59;58.05;99184.38;5558281;32;217327;-84
2022/03/30 04:22:19;;;;;;;22.50;14.00;;;;;;;8.43;58.60;99182.66;5546019;32;33716;-85
2022/03/30 04:25:22;;;;;;;24.58;14.30;;;;;;;8.43;58.71;99173.84;5547587;32;33690;-86
2022/03/30 04:28:25;;;;;;;26.40;14.48;;;;;;;8.42;59.03;99173.03;5545910;32;33881;-90
2022/03/30 04:31:27;;;;;;;25.15;14.87;;;;;;;8.39;59.24;99175.84;5547367;32;34444;-88
2022/03/30 04:34:30;;;;;;;26.00;14.98;;;;;;;8.41;59.30;99173.97;5545122;32;34062;-89
2022/03/30 04:37:33;;;;;;;29.20;14.15;;;;;;;8.51;58.96;99176.91;5544716;32;33427;-89
2022/03/30 04:40:36;;;;;;;23.27;15.02;;;;;;;8.46;59.50;99182.44;5544552;32;34466;-85
2022/03/30 04:43:39;;;;;;;25.75;14.75;;;;;;;8.46;59.53;99192.19;5545264;32;33642;-85
2022/03/30 04:46:42;;;;;;;28.08;14.73;;;;;;;8.37;59.69;99193.59;5544748;32;34372;-85
2022/03/30 04:49:45;;;;;;;23.50;14.45;;;;;;;8.33;59.82;99187.63;5550287;32;35109;-85
2022/03/30 04:52:48;;;;;;;21.52;13.93;;;;;;;8.39;60.24;99188.22;5547218;32;34567;-85
2022/03/30 04:55:51;;;;;;;24.92;14.55;;;;;;;8.45;60.46;99195.78;5553565;32;34013;-85
2022/03/30 04:58:54;;;;;;;26.77;14.30;;;;;;;8.60;60.37;99204.59;5568250;32;34405;-85
2022/03/30 05:01:56;;;;;;;22.45;14.55;;;;;;;8.70;60.05;99203.09;5572303;32;33998;-85
2022/03/30 05:05:00;;;;;;;27.62;15.15;;;;;;;8.70;59.96;99197.78;5570142;32;34741;-85
2022/03/30 05:08:03;;;;;;;24.30;14.43;;;;;;;8.85;59.84;99209.22;5553390;32;33837;-85
2022/03/30 05:11:06;;;;;;;25.55;15.50;;;;;;;8.90;59.70;99214.22;5558481;32;34033;-85
2022/03/30 05:14:09;;;;;;;25.60;14.68;;;;;;;8.97;59.33;99215.59;5559743;32;34076;-85
2022/03/30 05:17:12;;;;;;;26.02;15.02;;;;;;;9.09;59.15;99216.59;5566266;32;34409;-84
2022/03/30 05:20:17;;;;;;;24.40;15.52;;;;;;;9.23;58.80;99217.53;5553638;32;34705;-85
2022/03/30 05:23:20;;;;;;;23.42;15.07;;;;;;;9.42;57.82;99230.47;5548346;32;34031;-85
2022/03/30 05:26:23;;;;;;;32.63;15.82;;;;;;;9.57;57.82;99226.81;5558142;32;34038;-85
2022/03/30 05:29:26;;;;;;;27.67;15.27;;;;;;;9.92;56.85;99232.59;5549066;32;33809;-85
2022/03/30 05:32:29;;;;;;;37.22;15.30;;;;;;;9.98;57.25;99234.84;5533311;32;34749;-86
2022/03/30 05:35:32;;;;;;;30.50;15.70;;;;;;;10.07;56.61;99226.28;5532585;32;34620;-86
2022/03/30 05:38:35;;;;;;;28.25;15.27;;;;;;;10.13;56.39;99230.34;5533132;32;34784;-85
2022/03/30 05:41:38;;;;;;;32.22;15.63;;;;;;;10.21;56.23;99240.44;5532683;32;34010;-85
2022/03/30 05:44:41;;;;;;;27.30;15.73;;;;;;;10.41;56.38;99225.00;5525240;32;33964;-86
2022/03/30 05:47:44;;;;;;;28.42;15.52;;;;;;;10.65;55.25;99230.44;5513361;32;33963;-86
2022/03/30 05:50:46;;;;;;;27.27;16.60;;;;;;;10.99;54.29;99235.22;5528664;32;34533;-86
2022/03/30 05:53:49;;;;;;;29.67;16.37;;;;;;;11.30;53.39;99233.91;5533752;32;34090;-86
2022/03/30 05:57:01;;;;;;;29.60;17.37;;;;;;;11.70;52.25;99226.69;5512908;32;34480;-86
2022/03/30 06:00:07;;;;;;;36.17;17.25;;;;;;;11.91;51.60;99226.09;5531315;32;34058;-85
2022/03/30 06:03:15;;;;;;;42.80;17.60;;;;;;;12.01;51.33;99224.41;5526412;32;34609;-85
2022/03/30 06:06:18;;;;;;;33.45;16.52;;;;;;;12.23;50.36;99217.53;5532025;32;34961;-86
2022/03/30 06:09:21;;;;;;;28.67;16.80;;;;;;;12.51;50.05;99226.94;5531889;32;33964;-84
2022/03/30 06:12:41;;;;;;;32.67;18.47;;;;;;;12.79;49.04;99226.63;5535421;32;33990;-84
2022/03/30 06:15:43;;;;;;;35.05;18.15;;;;;;;13.51;47.54;99223.72;5536226;32;34188;-85
2022/03/30 06:18:47;;;;;;;36.47;18.20;;;;;;;14.51;45.65;99227.12;5520784;32;34366;-85
2022/03/30 06:21:50;;;;;;;28.20;18.42;;;;;;;14.51;45.87;99219.97;5523588;32;34873;-84
2022/03/30 06:24:53;;;;;;;36.20;18.60;;;;;;;15.23;44.37;99229.91;5535674;32;34091;-85
2022/03/30 06:27:57;;;;;;;30.08;18.30;;;;;;;15.98;42.39;99218.88;5532183;32;33862;-86
2022/03/30 06:31:00;;;;;;;33.95;19.23;;;;;;;16.64;40.41;99215.59;5530533;32;34106;-92
2022/03/30 06:34:06;;;;;;;36.92;18.33;;;;;;;17.80;37.76;99219.72;5514053;32;33648;-87
2022/03/30 06:37:10;;;;;;;30.60;18.58;;;;;;;18.26;36.31;99216.19;5516419;32;33900;-86
2022/03/30 06:40:14;;;;;;;35.53;18.83;;;;;;;18.31;36.05;99216.56;5511848;32;33534;-86
2022/03/30 06:43:17;;;;;;;26.25;17.33;;;;;;;18.57;35.46;99211.19;5512554;32;34945;-88
2022/03/30 06:46:20;;;;;;;27.77;17.75;;;;;;;19.01;34.20;99219.38;5535514;32;34085;-85
2022/03/30 06:49:24;;;;;;;29.23;20.05;;;;;;;18.88;33.85;99220.66;5519368;32;33750;-86
2022/03/30 06:52:28;;;;;;;29.42;19.65;;;;;;;17.96;35.51;99232.50;5519515;32;34114;-84
2022/03/30 06:55:31;;;;;;;32.83;19.62;;;;;;;18.67;33.71;99229.94;5517626;32;35232;-88
2022/03/30 06:58:35;;;;;;;29.77;19.58;;;;;;;18.52;34.43;99226.13;5522432;32;34040;-86
2022/03/30 07:01:38;;;;;;;38.22;20.77;;;;;;;18.93;33.40;99229.09;5521564;32;34999;-86
2022/03/30 07:04:46;;;;;;;36.90;18.77;;;;;;;19.54;32.51;99225.50;5523603;32;33213;-86
2022/03/30 07:11:22;;;;;;;31.77;19.23;;;;;;;19.54;29.86;99222.81;5549420;32;34490;-87
2022/03/30 07:14:24;;;;;;;31.75;18.83;;;;;;;19.85;30.00;99219.53;5561826;32;34175;-84
2022/03/30 07:17:57;;;;;;;27.60;18.80;;;;;;;20.06;29.66;99215.56;5553563;32;35285;-86
2022/03/30 07:21:09;;;;;;;27.15;17.90;;;;;;;20.41;29.42;99218.13;5553699;32;33053;-86
2022/03/30 07:24:12;;;;;;;28.62;18.48;;;;;;;21.16;28.79;99213.44;5558793;32;34708;-84
2022/03/30 07:27:16;;;;;;;35.85;19.90;;;;;;;21.13;28.14;99219.19;5553068;32;34410;-83
2022/03/30 07:30:22;;;;;;;36.05;19.95;;;;;;;20.53;28.83;99224.84;5565284;32;34030;-83
2022/03/30 07:33:27;;;;;;;31.23;17.98;;;;;;;21.47;27.77;99219.91;5542892;32;34391;-84
2022/03/30 07:36:31;;;;;;;32.67;18.52;;;;;;;21.58;27.31;99226.75;5555771;32;34979;-83
2022/03/30 07:39:34;;;;;;;28.77;18.87;;;;;;;20.85;28.17;99215.06;5559840;32;33984;-83
2022/03/30 07:42:40;;;;;;;32.90;19.73;;;;;;;21.75;27.10;99211.34;5544739;32;34333;-84
2022/03/30 07:45:44;;;;;;;37.13;18.48;;;;;;;22.26;26.68;99201.84;5544680;32;34298;-85
2022/03/30 07:48:47;;;;;;;29.23;18.75;;;;;;;21.89;26.69;99201.63;5547423;32;35304;-89
2022/03/30 07:51:49;;;;;;;28.30;18.65;;;;;;;22.11;26.34;99199.94;5564003;32;35031;-90
2022/03/30 07:54:59;;;;;;;28.60;18.40;;;;;;;22.30;26.19;99206.72;5544511;32;34116;-87
2022/03/30 07:58:28;;;;;;;32.08;17.15;;;;;;;22.69;25.60;99210.31;5527413;32;34538;-85
2022/03/30 08:01:31;;;;;;;30.73;18.27;;;;;;;22.73;26.69;99214.28;5538672;32;33889;-87
2022/03/30 08:04:52;;;;;;;30.70;17.10;;;;;;;21.43;26.79;99216.72;5534912;32;34074;-87
2022/03/30 08:07:55;;;;;;;30.95;17.23;;;;;;;21.12;27.84;99222.91;5534190;32;34069;-86
2022/03/30 08:10:58;;;;;;;28.90;17.95;;;;;;;22.16;26.87;99221.84;5530803;32;34860;-85
2022/03/30 08:14:01;;;;;;;30.45;18.27;;;;;;;22.46;26.05;99226.50;5529717;32;34374;-85
2022/03/30 08:17:05;;;;;;;27.23;17.48;;;;;;;22.44;25.87;99228.56;5533984;32;34149;-87
2022/03/30 08:20:11;;;;;;;28.85;17.67;;;;;;;22.48;25.61;99221.78;5537287;32;34149;-85
2022/03/30 08:23:14;;;;;;;30.02;20.35;;;;;;;22.05;26.70;99217.72;5535812;32;34602;-85
2022/03/30 08:26:20;;;;;;;37.67;20.70;;;;;;;20.52;28.84;99233.91;5533658;32;35070;-85
2022/03/30 08:29:22;;;;;;;36.97;21.33;;;;;;;20.29;29.61;99233.75;5528415;32;34930;-85
2022/03/30 08:32:28;;;;;;;39.20;22.08;;;;;;;20.39;29.90;99239.81;5528886;32;34465;-84
2022/03/30 08:35:31;;;;;;;37.47;22.05;;;;;;;20.26;30.11;99228.72;5528902;32;33862;-85
2022/03/30 08:38:34;;;;;;;47.45;21.92;;;;;;;20.05;30.32;99230.03;5529830;32;34073;-84
2022/03/30 08:41:43;;;;;;;37.83;21.45;;;;;;;21.50;29.14;99231.19;5544173;32;34814;-86
2022/03/30 08:44:46;;;;;;;33.83;20.75;;;;;;;21.67;27.43;99231.91;5547757;32;34026;-87
2022/03/30 08:47:51;;;;;;;44.47;22.83;;;;;;;21.23;28.30;99233.28;5539330;32;34770;-86
2022/03/30 08:50:54;;;;;;;39.95;22.58;;;;;;;20.85;29.07;99241.16;5539066;32;34314;-86
2022/03/30 08:53:57;;;;;;;34.83;22.13;;;;;;;20.04;30.75;99247.19;5546112;32;33873;-85
2022/03/30 08:57:00;;;;;;;40.30;22.35;;;;;;;19.54;31.72;99247.03;5538506;32;34598;-87
2022/03/30 09:00:08;;;;;;;35.95;22.40;;;;;;;19.26;31.73;99248.09;5537887;32;33980;-85
2022/03/30 09:03:15;;;;;;;43.97;22.50;;;;;;;19.32;32.08;99241.25;5549982;32;33917;-84
2022/03/30 09:06:33;;;;;;;37.70;21.35;;;;;;;19.53;31.53;99245.34;5554602;32;34541;-84
2022/03/30 09:09:41;;;;;;;42.80;22.55;;;;;;;18.83;32.36;99239.94;5554729;32;33939;-85
2022/03/30 09:12:46;;;;;;;36.95;21.67;;;;;;;18.53;32.88;99243.91;5554483;32;34238;-83
2022/03/30 09:15:53;;;;;;;36.63;20.42;;;;;;;18.39;33.09;99239.94;5553717;32;34143;-89
2022/03/30 09:19:05;;;;;;;36.28;20.12;;;;;;;18.41;33.18;99241.47;5552443;32;35027;-85
2022/03/30 09:22:10;;;;;;;36.70;19.20;;;;;;;18.13;34.01;99238.03;5553263;32;34897;-85
2022/03/30 09:25:14;;;;;;;35.42;18.40;;;;;;;19.01;32.96;99227.44;5542211;32;34138;-85
2022/03/30 09:28:19;;;;;;;42.13;19.08;;;;;;;19.09;32.97;99232.88;5537765;32;34644;-84
2022/03/30 09:31:25;;;;;;;33.33;19.40;;;;;;;19.16;32.54;99230.41;5539539;32;35238;-85
2022/03/30 09:34:33;;;;;;;37.25;19.67;;;;;;;19.41;31.95;99219.75;5532941;32;33570;-86
2022/03/30 09:37:42;;;;;;;34.03;18.92;;;;;;;19.09;32.40;99224.81;5535354;32;34155;-83
2022/03/30 09:40:50;;;;;;;37.80;19.58;;;;;;;19.18;32.02;99217.63;5534513;32;34496;-84
2022/03/30 09:44:05;;;;;;;32.42;18.05;;;;;;;18.64;32.93;99210.56;5535260;32;34042;-85
2022/03/30 09:47:08;;;;;;;34.47;19.73;;;;;;;18.66;33.25;99200.53;5544092;32;33775;-85
2022/03/30 09:50:11;;;;;;;34.17;19.23;;;;;;;18.66;33.19;99195.16;5557151;32;34339;-84
2022/03/30 09:53:16;;;;;;;38.30;19.87;;;;;;;18.26;33.96;99192.84;5557446;32;33799;-85
2022/03/30 09:56:22;;;;;;;36.50;19.00;;;;;;;18.13;34.37;99187.03;5558436;32;34736;-83
2022/03/30 09:59:28;;;;;;;35.08;19.80;;;;;;;18.78;32.82;99183.16;5558609;32;33967;-85
2022/03/30 10:02:42;;;;;;;32.97;19.05;;;;;;;18.39;33.19;99189.78;5556547;32;34241;-84
2022/03/30 10:05:46;;;;;;;35.63;18.65;;;;;;;18.07;34.51;99179.63;5556563;32;34094;-84
2022/03/30 10:08:51;;;;;;;33.00;18.52;;;;;;;17.80;35.42;99174.12;5557684;32;34168;-88
2022/03/30 10:11:54;;;;;;;34.72;18.87;;;;;;;17.65;34.98;99179.19;5553463;32;34870;-85
2022/03/30 10:14:59;;;;;;;31.65;18.92;;;;;;;17.59;34.86;99186.00;5557113;32;34525;-86
2022/03/30 10:18:08;;;;;;;35.70;18.40;;;;;;;17.86;34.59;99178.06;5560546;32;33613;-85
2022/03/30 10:21:39;;;;;;;36.03;19.30;;;;;;;17.94;34.18;99171.94;5552642;32;35005;-90
2022/03/30 10:26:08;;;;;;;33.40;19.50;;;;;;;17.66;34.53;99162.13;5538828;32;35262;-85
2022/03/30 10:29:24;;;;;;;33.38;17.48;;;;;;;17.72;35.04;99164.19;5553344;32;34374;-86
2022/03/30 10:32:59;;;;;;;33.17;17.25;;;;;;;18.05;35.33;99163.63;5546461;32;34347;-86
2022/03/30 10:36:43;;;;;;;28.75;17.10;;;;;;;18.36;35.14;99159.72;5545892;32;33897;-89
2022/03/30 10:40:40;;;;;;;34.38;17.83;;;;;;;17.90;36.19;99166.88;5555314;32;34210;-84
2022/03/30 10:43:48;;;;;;;28.33;16.90;;;;;;;17.41;37.68;99153.81;5562125;32;35354;-85
2022/03/30 10:47:18;;;;;;;32.70;15.57;;;;;;;17.88;36.54;99151.91;5557091;32;34316;-85
2022/03/30 10:50:37;;;;;;;28.35;15.13;;;;;;;18.58;36.00;99143.09;5546060;32;35137;-86
2022/03/30 10:53:51;;;;;;;29.20;16.27;;;;;;;19.03;35.33;99148.37;5531460;32;32846;-88
2022/03/30 10:56:57;;;;;;;24.35;15.60;;;;;;;18.45;35.38;99143.50;5540491;32;34418;-87
2022/03/30 11:00:06;;;;;;;29.48;16.20;;;;;;;18.29;36.05;99143.38;5547390;32;34894;-92
2022/03/30 11:03:16;;;;;;;25.95;16.12;;;;;;;18.03;36.44;99136.12;5548149;32;34371;-87
2022/03/30 11:06:19;;;;;;;28.77;16.00;;;;;;;18.27;36.25;99131.97;5545977;32;34136;-87
2022/03/30 11:09:25;;;;;;;23.83;15.57;;;;;;;18.29;36.05;99128.12;5552026;32;33893;-87
2022/03/30 11:13:02;;;;;;;22.85;14.48;;;;;;;18.67;35.84;99135.06;5554500;32;34339;-88
2022/03/30 11:16:11;;;;;;;21.42;15.25;;;;;;;18.62;36.29;99129.34;5544120;32;34476;-88
2022/03/30 11:19:15;;;;;;;25.48;14.40;;;;;;;18.04;37.52;99124.37;5546166;32;35237;-88
2022/03/30 11:22:24;;;;;;;26.05;13.57;;;;;;;18.09;37.75;99118.59;5557866;32;34801;-87
2022/03/30 11:25:28;;;;;;;25.75;14.55;;;;;;;18.60;37.12;99121.44;5565908;32;35185;-86
2022/03/30 11:28:38;;;;;;;25.80;14.57;;;;;;;18.70;36.32;99121.31;5528735;32;32339;-85
2022/03/30 11:31:41;;;;;;;23.77;14.60;;;;;;;18.77;35.58;99119.69;5544927;32;34739;-85
2022/03/30 11:34:47;;;;;;;28.73;14.55;;;;;;;18.58;35.20;99115.38;5559053;32;33830;-86
2022/03/30 11:38:08;;;;;;;28.05;14.18;;;;;;;18.52;35.48;99108.81;5564171;32;34844;-86
2022/03/30 11:41:26;;;;;;;24.12;13.75;;;;;;;18.64;35.32;99104.00;5552080;32;34989;-86
2022/03/30 11:48:20;;;;;;;26.40;14.02;;;;;;;18.64;35.53;99092.41;845695;30;20351;-88
2022/03/30 11:51:27;;;;;;;20.33;13.20;;;;;;;18.70;35.91;99083.72;5578964;32;33270;-87
2022/03/30 11:54:30;;;;;;;25.48;13.50;;;;;;;18.54;36.44;99079.97;5576030;32;35200;-87
2022/03/30 11:57:42;;;;;;;22.42;13.48;;;;;;;18.83;36.42;99077.91;5583965;31;35193;-87
2022/03/30 12:00:44;;;;;;;25.92;12.85;;;;;;;18.47;36.77;99084.28;5598053;31;33916;-86
2022/03/30 12:03:54;;;;;;;17.85;13.62;;;;;;;18.77;36.40;99073.19;5598992;31;34058;-87
2022/03/30 12:06:57;;;;;;;18.52;13.65;;;;;;;18.64;36.45;99068.22;5587632;31;34220;-87
2022/03/30 12:10:02;;;;;;;26.83;14.43;;;;;;;18.80;36.11;99062.94;5577159;31;34434;-87
2022/03/30 12:13:22;;;;;;;20.77;13.45;;;;;;;18.41;36.52;99058.91;5579015;31;34688;-87
2022/03/30 12:16:32;;;;;;;16.95;12.80;;;;;;;18.24;36.66;99057.97;5580371;31;34202;-87
2022/03/30 12:19:36;;;;;;;20.37;12.82;;;;;;;17.96;36.95;99050.06;5570364;31;33792;-88
2022/03/30 12:22:39;;;;;;;21.80;12.98;;;;;;;17.72;37.47;99048.03;5574723;32;34326;-88
2022/03/30 12:25:44;;;;;;;20.62;13.00;;;;;;;17.55;37.73;99041.69;5573521;31;35021;-87
2022/03/30 12:28:47;;;;;;;22.83;12.70;;;;;;;17.45;37.85;99042.59;5581269;31;34642;-86
2022/03/30 12:31:59;;;;;;;18.27;12.48;;;;;;;17.88;37.38;99041.94;5584493;31;34247;-86
2022/03/30 12:35:10;;;;;;;23.40;12.75;;;;;;;17.86;37.79;99039.41;5573878;32;35024;-87
2022/03/30 12:38:15;;;;;;;21.08;12.80;;;;;;;17.88;37.63;99025.84;5574611;32;35127;-87
2022/03/30 12:41:26;;;;;;;18.87;12.48;;;;;;;17.64;38.75;99024.66;5576060;26;34029;-87
2022/03/30 12:44:38;;;;;;;19.73;12.18;;;;;;;17.39;38.42;99021.78;5556432;32;34424;-86
2022/03/30 12:47:59;;;;;;;21.77;12.40;;;;;;;17.27;38.98;99023.84;5566814;32;35487;-90
2022/03/30 12:51:18;;;;;;;17.25;11.82;;;;;;;17.38;38.67;99010.22;5562346;32;34448;-86
2022/03/30 12:54:22;;;;;;;21.70;12.45;;;;;;;17.44;38.36;99008.75;5563449;32;35010;-87
2022/03/30 12:57:30;;;;;;;20.40;12.40;;;;;;;17.43;38.41;99001.72;5550713;32;34383;-86
2022/03/30 13:00:47;;;;;;;19.35;12.65;;;;;;;17.23;38.67;98999.22;5546052;32;34216;-84
2022/03/30 13:03:52;;;;;;;20.23;11.95;;;;;;;17.21;39.26;98995.81;5547024;32;33821;-84
2022/03/30 13:07:26;;;;;;;22.67;12.37;;;;;;;17.14;38.69;98986.72;5565624;32;34008;-86
2022/03/30 13:11:13;;;;;;;22.37;13.05;;;;;;;17.15;38.93;98999.09;5539353;32;34566;-84
2022/03/30 13:14:28;;;;;;;23.77;13.18;;;;;;;16.63;39.97;98995.19;5567615;32;32742;-86
2022/03/30 13:17:32;;;;;;;19.95;13.50;;;;;;;16.24;40.74;98987.37;5586120;32;34001;-88
2022/03/30 13:20:37;;;;;;;22.15;14.05;;;;;;;16.54;40.04;98980.03;5561933;32;35132;-92
2022/03/30 13:27:44;;;;;;;23.67;13.88;;;;;;;16.68;39.65;98984.03;5564716;32;33973;-86
2022/03/30 13:30:56;;;;;;;21.35;14.00;;;;;;;16.54;39.67;98980.88;5554275;32;35184;-85
2022/03/30 13:34:54;;;;;;;21.75;13.85;;;;;;;16.64;39.10;98980.81;5526514;32;35373;-85
2022/03/30 13:38:26;;;;;;;18.80;12.32;;;;;;;16.41;39.11;98970.50;5517339;32;33637;-90
2022/03/30 13:41:29;;;;;;;19.55;12.23;;;;;;;16.01;39.64;98975.22;5524764;32;34313;-89
2022/03/30 13:44:33;;;;;;;17.12;11.93;;;;;;;16.03;39.80;98967.88;5518491;32;33954;-88
2022/03/30 13:47:38;;;;;;;18.65;12.37;;;;;;;15.96;40.41;98965.94;5535102;32;33595;-88
2022/03/30 13:51:21;;;;;;;23.35;11.65;;;;;;;15.94;40.58;98965.25;5907867;26;35116;-88
2022/03/30 13:54:37;;;;;;;19.73;11.52;;;;;;;15.62;41.62;98960.09;5532844;32;34233;-87
2022/03/30 13:57:40;;;;;;;17.77;11.93;;;;;;;15.69;41.64;98959.50;5524601;32;34226;-88
2022/03/30 14:01:09;;;;;;;23.08;11.77;;;;;;;15.72;41.83;98956.53;5523177;32;35211;-85
2022/03/30 14:04:12;;;;;;;19.55;12.13;;;;;;;15.45;42.21;98953.62;5522595;32;33726;-86
2022/03/30 14:07:15;;;;;;;23.33;11.20;;;;;;;15.36;42.53;98950.00;5522999;32;34100;-84
2022/03/30 14:10:22;;;;;;;27.52;12.23;;;;;;;15.46;42.93;98952.66;5526563;32;35267;-84
2022/03/30 14:13:26;;;;;;;16.87;10.73;;;;;;;15.36;43.55;98951.81;5558105;32;34621;-85
2022/03/30 14:16:29;;;;;;;20.12;11.45;;;;;;;15.46;44.11;98950.00;5561424;32;34262;-85
2022/03/30 14:22:57;;;;;;;18.70;10.88;;;;;;;15.30;45.02;98944.38;5564422;32;33767;-84
2022/03/30 14:26:11;;;;;;;18.83;10.18;;;;;;;15.21;45.60;98946.06;5565364;32;34076;-86
2022/03/30 14:29:14;;;;;;;18.60;9.43;;;;;;;15.36;45.59;98936.66;5564603;32;33812;-89
2022/03/30 14:32:17;;;;;;;24.25;9.63;;;;;;;15.39;46.42;98934.66;5560969;32;34507;-89
2022/03/30 14:35:20;;;;;;;21.62;9.25;;;;;;;15.30;47.09;98937.22;5563047;32;35188;-89
2022/03/30 14:38:23;;;;;;;15.65;9.85;;;;;;;15.22;47.25;98939.75;5567092;32;34866;-88
2022/03/30 14:41:32;;;;;;;18.50;10.10;;;;;;;15.11;47.88;98939.88;5566867;32;35082;-85
2022/03/30 14:44:37;;;;;;;17.85;9.90;;;;;;;14.99;48.28;98932.00;5566799;32;35225;-86
2022/03/30 14:47:40;;;;;;;25.88;10.30;;;;;;;15.09;47.90;98942.72;5575196;32;35176;-86
2022/03/30 14:50:43;;;;;;;17.55;10.02;;;;;;;15.12;47.63;98929.06;5557792;32;35270;-86
2022/03/30 14:53:46;;;;;;;17.45;9.13;;;;;;;15.00;47.79;98928.38;5556655;32;35270;-86
2022/03/30 14:56:48;;;;;;;21.62;9.60;;;;;;;14.93;48.21;98928.09;5564509;32;35098;-86
2022/03/30 14:59:52;;;;;;;17.73;9.23;;;;;;;14.89;48.64;98924.00;5554489;32;35214;-87
2022/03/30 15:02:57;;;;;;;19.27;9.35;;;;;;;14.85;49.18;98925.28;5553479;32;33867;-86
2022/03/30 15:06:01;;;;;;;23.30;9.15;;;;;;;14.81;49.57;98910.50;5555465;32;34879;-86
2022/03/30 15:09:04;;;;;;;28.80;9.40;;;;;;;14.81;49.99;98910.50;5555680;32;34150;-86
2022/03/30 15:12:08;;;;;;;30.05;9.63;;;;;;;14.74;50.25;98907.53;5561819;32;34835;-86
2022/03/30 15:15:11;;;;;;;27.25;8.63;;;;;;;14.73;50.62;98903.16;5556562;32;33809;-86
2022/03/30 15:18:14;;;;;;;27.42;9.52;;;;;;;14.75;50.66;98908.41;5557932;32;34328;-86
2022/03/30 15:21:17;;;;;;;28.48;10.02;;;;;;;14.73;50.89;98905.84;5563335;32;34352;-86
2022/03/30 15:24:21;;;;;;;30.88;9.43;;;;;;;14.64;51.35;98910.19;5557482;32;34691;-86
2022/03/30 15:27:25;;;;;;;22.77;8.98;;;;;;;14.61;51.45;98909.63;5558843;32;34461;-86
2022/03/30 15:30:28;;;;;;;21.17;8.95;;;;;;;14.55;51.76;98903.84;5557540;32;34666;-85
